createdAt,value
2018-10-11T00:01:31.225Z,15.14
2018-10-11T00:04:01.143Z,15.16
2018-10-11T00:06:31.219Z,15.13
2018-10-11T00:09:00.996Z,15.04
2018-10-11T00:11:30.866Z,15.08
2018-10-11T00:14:00.798Z,15.11
2018-10-11T00:16:30.654Z,15.14
2018-10-11T00:19:00.493Z,15.16
2018-10-11T00:21:30.393Z,15.16
2018-10-11T00:24:00.122Z,15.14
2018-10-11T00:26:29.952Z,15.08
2018-10-11T00:28:59.719Z,15.05
2018-10-11T00:31:29.576Z,15.04
2018-10-11T00:33:59.395Z,14.96
2018-10-11T00:36:29.364Z,14.98
2018-10-11T00:38:59.263Z,14.87
2018-10-11T00:41:29.274Z,14.79
2018-10-11T00:43:59.264Z,14.71
2018-10-11T00:46:29.229Z,14.73
2018-10-11T00:48:59.279Z,14.66
2018-10-11T00:51:29.306Z,14.66
2018-10-11T00:53:59.303Z,14.60
2018-10-11T00:56:29.398Z,14.53
2018-10-11T00:58:59.414Z,14.52
2018-10-11T01:01:29.264Z,14.57
2018-10-11T01:03:59.158Z,14.52
2018-10-11T01:06:29.149Z,14.46
2018-10-11T01:08:59.228Z,14.49
2018-10-11T01:11:29.166Z,14.50
2018-10-11T01:13:58.985Z,14.48
2018-10-11T01:16:28.919Z,14.51
2018-10-11T01:18:58.918Z,14.56
2018-10-11T01:21:28.826Z,14.56
2018-10-11T01:23:58.798Z,14.55
2018-10-11T01:26:28.777Z,14.54
2018-10-11T01:28:58.696Z,14.56
2018-10-11T01:31:28.536Z,14.65
2018-10-11T01:33:58.418Z,14.61
2018-10-11T01:36:28.526Z,14.67
2018-10-11T01:38:58.572Z,14.69
2018-10-11T01:41:28.618Z,14.70
2018-10-11T01:43:58.518Z,14.72
2018-10-11T01:46:28.436Z,14.74
2018-10-11T01:48:59.110Z,14.75
2018-10-11T01:51:29.208Z,14.78
2018-10-11T01:53:59.252Z,14.82
2018-10-11T01:56:29.738Z,14.86
2018-10-11T01:58:59.545Z,14.91
2018-10-11T02:01:29.720Z,14.98
2018-10-11T02:03:59.902Z,14.98
2018-10-11T02:06:29.898Z,15.04
2018-10-11T02:09:00.349Z,15.09
2018-10-11T02:11:30.261Z,15.11
2018-10-11T02:14:00.036Z,15.15
2018-10-11T02:16:30.142Z,15.12
2018-10-11T02:19:00.100Z,15.12
2018-10-11T02:21:30.381Z,15.14
2018-10-11T02:24:00.181Z,15.15
2018-10-11T02:26:30.145Z,15.16
2018-10-11T02:29:00.347Z,15.17
2018-10-11T02:31:30.315Z,15.16
2018-10-11T02:34:00.179Z,15.15
2018-10-11T02:36:30.312Z,15.14
2018-10-11T02:39:00.396Z,15.14
2018-10-11T02:41:30.291Z,15.13
2018-10-11T02:44:00.057Z,15.13
2018-10-11T02:46:30.096Z,15.11
2018-10-11T02:49:00.094Z,15.09
2018-10-11T02:51:30.123Z,15.07
2018-10-11T02:53:59.979Z,15.13
2018-10-11T02:56:29.840Z,15.14
2018-10-11T02:59:33.449Z,15.13
2018-10-11T03:02:12.927Z,15.14
2018-10-11T03:04:44.691Z,15.13
2018-10-11T03:07:14.758Z,15.13
2018-10-11T03:09:44.741Z,15.10
2018-10-11T03:12:14.692Z,15.11
2018-10-11T03:14:44.613Z,15.09
2018-10-11T03:17:14.536Z,15.12
2018-10-11T03:19:44.456Z,15.16
2018-10-11T03:22:14.457Z,15.13
2018-10-11T03:24:44.328Z,15.11
2018-10-11T03:27:14.088Z,15.12
2018-10-11T03:29:43.845Z,15.12
2018-10-11T03:32:13.709Z,15.14
2018-10-11T03:34:43.677Z,15.10
2018-10-11T03:37:13.490Z,15.11
2018-10-11T03:39:43.670Z,15.09
2018-10-11T03:42:13.490Z,15.05
2018-10-11T03:44:43.415Z,15.02
2018-10-11T03:47:13.176Z,15.01
2018-10-11T03:49:43.097Z,15.00
2018-10-11T03:52:13.005Z,15.01
2018-10-11T03:54:43.388Z,15.02
2018-10-11T03:57:13.265Z,15.02
2018-10-11T03:59:43.504Z,15.03
2018-10-11T04:02:13.365Z,15.06
2018-10-11T04:04:43.301Z,15.03
2018-10-11T04:07:13.132Z,15.05
2018-10-11T04:09:42.985Z,15.05
2018-10-11T04:12:12.829Z,15.02
2018-10-11T04:14:42.750Z,15.01
2018-10-11T04:17:12.563Z,14.99
2018-10-11T04:19:42.578Z,15.01
2018-10-11T04:22:12.745Z,15.00
2018-10-11T04:24:42.637Z,14.99
2018-10-11T04:27:12.534Z,14.98
2018-10-11T04:29:42.561Z,15.00
2018-10-11T04:32:12.380Z,14.96
2018-10-11T04:34:42.468Z,14.94
2018-10-11T04:37:12.558Z,14.92
2018-10-11T04:39:42.663Z,14.95
2018-10-11T04:42:12.594Z,14.92
2018-10-11T04:44:42.744Z,14.87
2018-10-11T04:47:12.648Z,14.86
2018-10-11T04:49:42.580Z,14.84
2018-10-11T04:52:12.404Z,14.79
2018-10-11T04:54:42.326Z,14.78
2018-10-11T04:57:12.226Z,14.79
2018-10-11T04:59:42.135Z,14.78
2018-10-11T05:02:11.910Z,14.80
2018-10-11T05:04:41.988Z,14.79
2018-10-11T05:07:12.530Z,14.75
2018-10-11T05:09:42.574Z,14.83
2018-10-11T05:12:12.496Z,14.88
2018-10-11T05:14:42.724Z,14.90
2018-10-11T05:17:12.942Z,14.93
2018-10-11T05:19:43.090Z,14.92
2018-10-11T05:22:12.946Z,14.90
2018-10-11T05:24:43.008Z,14.93
2018-10-11T05:27:13.508Z,14.96
2018-10-11T05:29:43.589Z,14.93
2018-10-11T05:32:13.755Z,14.90
2018-10-11T05:34:43.528Z,14.86
2018-10-11T05:37:13.681Z,14.86
2018-10-11T05:39:43.682Z,14.89
2018-10-11T05:42:14.231Z,14.96
2018-10-11T05:44:45.290Z,14.96
2018-10-11T05:47:15.195Z,14.95
2018-10-11T05:49:45.492Z,14.94
2018-10-11T05:52:15.682Z,14.95
2018-10-11T05:54:45.597Z,14.95
2018-10-11T05:57:15.540Z,14.99
2018-10-11T05:59:45.576Z,15.01
2018-10-11T06:02:16.210Z,15.05
2018-10-11T06:04:46.197Z,15.10
2018-10-11T06:07:16.547Z,15.19
2018-10-11T06:09:46.661Z,15.19
2018-10-11T06:12:17.359Z,15.19
2018-10-11T06:14:47.472Z,15.20
2018-10-11T06:17:17.399Z,15.20
2018-10-11T06:19:47.465Z,15.20
2018-10-11T06:22:17.377Z,15.22
2018-10-11T06:24:47.280Z,15.22
2018-10-11T06:27:17.129Z,15.24
2018-10-11T06:29:47.048Z,15.26
2018-10-11T06:32:17.056Z,15.29
2018-10-11T06:34:47.317Z,15.33
2018-10-11T06:37:17.333Z,15.38
2018-10-11T06:39:47.597Z,15.45
2018-10-11T06:42:17.615Z,15.51
2018-10-11T06:44:47.798Z,15.61
2018-10-11T06:47:19.625Z,15.69
2018-10-11T06:49:49.811Z,15.75
2018-10-11T06:52:19.952Z,15.85
2018-10-11T06:54:49.962Z,15.96
2018-10-11T06:57:19.879Z,16.05
2018-10-11T06:59:49.839Z,16.13
2018-10-11T07:02:19.918Z,16.18
2018-10-11T07:04:49.810Z,16.25
2018-10-11T07:07:19.684Z,16.29
2018-10-11T07:09:49.550Z,16.35
2018-10-11T07:12:19.466Z,16.47
2018-10-11T07:14:49.490Z,16.62
2018-10-11T07:17:19.460Z,16.72
2018-10-11T07:19:49.413Z,16.83
2018-10-11T07:22:19.408Z,16.93
2018-10-11T07:24:49.440Z,17.06
2018-10-11T07:27:19.475Z,17.10
2018-10-11T07:29:49.343Z,17.22
2018-10-11T07:32:19.340Z,17.26
2018-10-11T07:34:49.597Z,17.33
2018-10-11T07:37:19.357Z,17.30
2018-10-11T07:39:49.365Z,17.38
2018-10-11T07:42:19.708Z,17.45
2018-10-11T07:44:50.152Z,17.49
2018-10-11T07:47:20.122Z,17.60
2018-10-11T07:49:50.187Z,17.67
2018-10-11T07:52:20.335Z,17.74
2018-10-11T07:54:50.608Z,17.78
2018-10-11T07:57:20.541Z,17.87
2018-10-11T07:59:50.374Z,17.97
2018-10-11T08:02:20.766Z,18.00
2018-10-11T08:04:50.773Z,18.07
2018-10-11T08:07:20.848Z,18.16
2018-10-11T08:09:50.987Z,18.21
2018-10-11T08:12:21.041Z,18.24
2018-10-11T08:14:50.956Z,18.33
2018-10-11T08:17:21.294Z,18.53
2018-10-11T08:19:51.112Z,18.52
2018-10-11T08:22:20.928Z,18.52
2018-10-11T08:24:50.989Z,18.60
2018-10-11T08:27:20.992Z,18.68
2018-10-11T08:29:51.151Z,18.79
2018-10-11T08:32:21.744Z,18.80
2018-10-11T08:34:51.633Z,18.84
2018-10-11T08:37:21.644Z,18.92
2018-10-11T08:39:51.572Z,18.93
2018-10-11T08:42:21.553Z,19.06
2018-10-11T08:44:51.458Z,19.16
2018-10-11T08:47:21.417Z,19.24
2018-10-11T08:49:51.638Z,19.28
2018-10-11T08:52:21.707Z,19.32
2018-10-11T08:54:52.653Z,19.39
2018-10-11T08:57:23.309Z,19.40
2018-10-11T08:59:53.309Z,19.48
2018-10-11T09:02:23.364Z,19.54
2018-10-11T09:04:53.256Z,19.59
2018-10-11T09:07:23.237Z,19.76
2018-10-11T09:09:53.686Z,19.77
2018-10-11T09:12:23.283Z,19.82
2018-10-11T09:14:53.728Z,19.85
2018-10-11T09:17:23.734Z,19.87
2018-10-11T09:19:53.463Z,19.93
2018-10-11T09:22:23.542Z,20.01
2018-10-11T09:24:53.423Z,20.10
2018-10-11T09:27:23.354Z,20.10
2018-10-11T09:29:53.277Z,20.13
2018-10-11T09:32:23.094Z,20.16
2018-10-11T09:34:53.163Z,20.19
2018-10-11T09:37:23.178Z,20.24
2018-10-11T09:39:53.413Z,20.30
2018-10-11T09:42:23.285Z,20.33
2018-10-11T09:44:53.243Z,20.33
2018-10-11T09:47:23.268Z,20.35
2018-10-11T09:49:53.197Z,20.30
2018-10-11T09:52:23.172Z,20.26
2018-10-11T09:54:53.167Z,20.33
2018-10-11T09:57:27.315Z,20.35
2018-10-11T09:59:57.695Z,20.47
2018-10-11T10:02:28.165Z,20.61
2018-10-11T10:05:01.474Z,20.70
2018-10-11T10:07:31.442Z,20.70
2018-10-11T10:10:01.859Z,20.72
2018-10-11T10:12:31.827Z,20.74
2018-10-11T10:15:01.758Z,20.83
2018-10-11T10:17:31.784Z,20.94
2018-10-11T10:20:01.952Z,20.97
2018-10-11T10:22:31.975Z,20.92
2018-10-11T10:25:01.859Z,20.96
2018-10-11T10:27:32.164Z,20.98
2018-10-11T10:30:05.975Z,21.05
2018-10-11T10:32:36.110Z,21.17
2018-10-11T10:35:06.067Z,21.34
2018-10-11T10:37:36.163Z,21.42
2018-10-11T10:40:06.236Z,21.55
2018-10-11T10:42:36.230Z,21.63
2018-10-11T10:45:06.781Z,21.70
2018-10-11T10:47:36.710Z,21.86
2018-10-11T10:50:06.687Z,21.90
2018-10-11T10:52:36.637Z,21.87
2018-10-11T10:55:07.000Z,21.87
2018-10-11T10:57:37.127Z,21.90
2018-10-11T11:00:08.024Z,21.93
2018-10-11T11:02:38.101Z,21.97
2018-10-11T11:05:08.211Z,22.02
2018-10-11T11:07:38.123Z,22.02
2018-10-11T11:10:09.161Z,22.13
2018-10-11T11:12:39.199Z,22.17
2018-10-11T11:15:09.226Z,22.18
2018-10-11T11:17:39.467Z,22.18
2018-10-11T11:20:09.620Z,22.20
2018-10-11T11:22:39.538Z,22.30
2018-10-11T11:25:09.381Z,22.33
2018-10-11T11:27:39.455Z,22.38
2018-10-11T11:30:09.600Z,22.33
2018-10-11T11:32:39.768Z,22.36
2018-10-11T11:35:09.683Z,22.40
2018-10-11T11:37:39.776Z,22.40
2018-10-11T11:40:10.198Z,22.29
2018-10-11T11:42:40.081Z,22.40
2018-10-11T11:45:10.226Z,22.48
2018-10-11T11:47:40.249Z,22.59
2018-10-11T11:50:10.301Z,22.39
2018-10-11T11:52:40.178Z,22.32
2018-10-11T11:55:10.100Z,22.40
2018-10-11T11:57:40.124Z,22.40
2018-10-11T12:00:10.263Z,22.46
2018-10-11T12:02:40.372Z,22.53
2018-10-11T12:05:10.223Z,22.56
2018-10-11T12:07:40.700Z,22.68
2018-10-11T12:10:10.864Z,22.84
2018-10-11T12:13:00.390Z,23.06
2018-10-11T12:15:31.486Z,23.13
2018-10-11T12:18:02.633Z,23.12
2018-10-11T12:20:33.809Z,23.10
2018-10-11T12:23:04.871Z,23.22
2018-10-11T12:25:35.362Z,23.17
2018-10-11T12:28:05.301Z,23.19
2018-10-11T12:30:35.777Z,23.23
2018-10-11T12:33:05.817Z,23.22
2018-10-11T12:35:37.584Z,23.45
2018-10-11T12:38:08.762Z,23.54
2018-10-11T12:40:38.860Z,23.54
2018-10-11T12:43:08.948Z,23.36
2018-10-11T12:45:40.056Z,23.15
2018-10-11T12:48:09.946Z,22.92
2018-10-11T12:50:39.878Z,22.72
2018-10-11T12:53:10.069Z,22.62
2018-10-11T12:55:39.917Z,22.52
2018-10-11T12:58:09.883Z,22.50
2018-10-11T13:00:39.855Z,22.49
2018-10-11T13:03:10.505Z,22.58
2018-10-11T13:05:41.389Z,22.49
2018-10-11T13:08:11.444Z,22.47
2018-10-11T13:10:41.662Z,22.41
2018-10-11T13:13:11.508Z,22.31
2018-10-11T13:15:41.550Z,22.23
2018-10-11T13:18:11.624Z,22.19
2018-10-11T13:20:42.074Z,22.21
2018-10-11T13:23:15.754Z,22.17
2018-10-11T13:25:41.814Z,22.16
2018-10-11T13:28:12.025Z,22.22
2018-10-11T13:30:41.901Z,22.20
2018-10-11T13:33:11.916Z,22.18
2018-10-11T13:35:41.961Z,22.23
2018-10-11T13:38:12.226Z,22.20
2018-10-11T13:40:42.313Z,22.13
2018-10-11T13:43:12.070Z,22.17
2018-10-11T13:45:42.081Z,22.07
2018-10-11T13:48:12.073Z,21.97
2018-10-11T13:50:41.875Z,21.89
2018-10-11T13:53:15.423Z,21.81
2018-10-11T13:55:46.943Z,21.88
2018-10-11T13:58:11.929Z,21.92
2018-10-11T14:00:42.505Z,21.97
2018-10-11T14:03:12.596Z,22.02
2018-10-11T14:05:42.435Z,22.00
2018-10-11T14:08:12.439Z,21.95
2018-10-11T14:10:42.417Z,22.00
2018-10-11T14:13:15.089Z,21.99
2018-10-11T14:15:42.314Z,21.97
2018-10-11T14:18:12.769Z,21.96
2018-10-11T14:20:42.657Z,22.02
2018-10-11T14:23:12.916Z,22.06
2018-10-11T14:25:42.868Z,22.05
2018-10-11T14:28:12.852Z,22.04
2018-10-11T14:30:42.827Z,22.02
2018-10-11T14:33:12.902Z,22.06
2018-10-11T14:35:42.772Z,22.10
2018-10-11T14:38:12.647Z,22.08
2018-10-11T14:40:42.625Z,22.11
2018-10-11T14:43:12.742Z,22.10
2018-10-11T14:45:42.625Z,22.19
2018-10-11T14:48:13.024Z,22.20
2018-10-11T14:50:43.207Z,22.32
2018-10-11T14:53:13.365Z,22.42
2018-10-11T14:55:43.306Z,22.48
2018-10-11T14:58:13.538Z,22.51
2018-10-11T15:00:43.474Z,22.57
2018-10-11T15:03:13.525Z,22.58
2018-10-11T15:05:43.861Z,22.58
2018-10-11T15:08:13.957Z,22.63
2018-10-11T15:10:44.045Z,22.75
2018-10-11T15:13:13.860Z,22.68
2018-10-11T15:15:46.029Z,22.67
2018-10-11T15:18:15.951Z,22.58
2018-10-11T15:20:46.354Z,22.55
2018-10-11T15:23:16.684Z,22.44
2018-10-11T15:25:46.795Z,22.34
2018-10-11T15:28:16.634Z,22.27
2018-10-11T15:30:47.057Z,22.17
2018-10-11T15:33:16.753Z,22.04
2018-10-11T15:35:46.766Z,22.14
2018-10-11T15:38:17.017Z,22.00
2018-10-11T15:40:47.045Z,21.94
2018-10-11T15:43:17.004Z,21.92
2018-10-11T15:45:46.954Z,21.99
2018-10-11T15:48:16.809Z,21.94
2018-10-11T15:50:46.816Z,21.92
2018-10-11T15:53:16.765Z,21.86
2018-10-11T15:55:47.031Z,21.82
2018-10-11T15:58:17.194Z,21.91
2018-10-11T16:00:47.223Z,21.81
2018-10-11T16:03:17.394Z,21.73
2018-10-11T16:05:47.458Z,21.69
2018-10-11T16:08:17.314Z,21.68
2018-10-11T16:10:47.630Z,21.65
2018-10-11T16:13:17.481Z,21.77
2018-10-11T16:15:47.775Z,21.69
2018-10-11T16:18:17.811Z,21.66
2018-10-11T16:20:47.742Z,21.66
2018-10-11T16:23:17.643Z,21.57
2018-10-11T16:25:47.946Z,21.48
2018-10-11T16:28:17.944Z,21.44
2018-10-11T16:30:49.170Z,21.40
2018-10-11T16:33:19.373Z,21.36
2018-10-11T16:35:49.541Z,21.36
2018-10-11T16:38:19.340Z,21.28
2018-10-11T16:40:49.304Z,21.26
2018-10-11T16:43:19.205Z,21.24
2018-10-11T16:45:49.172Z,21.17
2018-10-11T16:48:19.306Z,21.09
2018-10-11T16:50:49.144Z,21.03
2018-10-11T16:53:19.093Z,20.99
2018-10-11T16:55:49.379Z,20.92
2018-10-11T16:58:19.753Z,20.90
2018-10-11T17:00:49.991Z,20.88
2018-10-11T17:03:20.390Z,20.84
2018-10-11T17:05:50.192Z,20.77
2018-10-11T17:08:20.211Z,20.69
2018-10-11T17:10:50.306Z,20.67
2018-10-11T17:13:20.124Z,20.64
2018-10-11T17:15:50.135Z,20.57
2018-10-11T17:18:20.190Z,20.51
2018-10-11T17:20:50.257Z,20.45
2018-10-11T17:23:20.364Z,20.41
2018-10-11T17:25:50.607Z,20.36
2018-10-11T17:28:20.691Z,20.31
2018-10-11T17:30:50.842Z,20.30
2018-10-11T17:33:20.991Z,20.20
2018-10-11T17:35:51.072Z,20.15
2018-10-11T17:38:21.726Z,20.12
2018-10-11T17:40:51.742Z,20.12
2018-10-11T17:43:21.576Z,20.08
2018-10-11T17:45:51.504Z,20.08
2018-10-11T17:48:21.537Z,20.07
2018-10-11T17:50:52.087Z,20.07
2018-10-11T17:53:22.308Z,20.03
2018-10-11T17:55:52.384Z,20.03
2018-10-11T17:58:22.604Z,20.04
2018-10-11T18:00:52.951Z,19.99
2018-10-11T18:03:22.938Z,19.98
2018-10-11T18:05:52.764Z,19.93
2018-10-11T18:08:22.909Z,20.01
2018-10-11T18:10:53.215Z,19.99
2018-10-11T18:13:23.033Z,19.95
2018-10-11T18:15:52.894Z,19.92
2018-10-11T18:18:23.013Z,19.86
2018-10-11T18:20:52.884Z,19.93
2018-10-11T18:23:22.945Z,19.87
2018-10-11T18:25:52.949Z,19.84
2018-10-11T18:28:23.008Z,19.82
2018-10-11T18:30:53.098Z,19.80
2018-10-11T18:33:23.113Z,19.77
2018-10-11T18:35:53.334Z,19.74
2018-10-11T18:38:23.362Z,19.70
2018-10-11T18:40:53.480Z,19.67
2018-10-11T18:43:23.544Z,19.68
2018-10-11T18:45:53.400Z,19.69
2018-10-11T18:48:23.471Z,19.67
2018-10-11T18:50:53.406Z,19.77
2018-10-11T18:53:23.447Z,19.69
2018-10-11T18:55:53.667Z,19.63
2018-10-11T18:58:23.723Z,19.63
2018-10-11T19:00:53.726Z,19.61
2018-10-11T19:03:23.514Z,19.64
2018-10-11T19:05:53.491Z,19.68
2018-10-11T19:08:23.397Z,19.64
2018-10-11T19:10:53.258Z,19.64
2018-10-11T19:13:23.109Z,19.56
2018-10-11T19:15:53.001Z,19.62
2018-10-11T19:18:22.912Z,19.61
2018-10-11T19:20:52.920Z,19.58
2018-10-11T19:23:23.195Z,19.55
2018-10-11T19:25:53.208Z,19.52
2018-10-11T19:28:23.053Z,19.49
2018-10-11T19:30:53.204Z,19.46
2018-10-11T19:33:23.391Z,19.42
2018-10-11T19:35:53.281Z,19.40
2018-10-11T19:38:23.232Z,19.35
2018-10-11T19:40:53.384Z,19.32
2018-10-11T19:43:23.481Z,19.28
2018-10-11T19:45:53.516Z,19.28
2018-10-11T19:48:23.763Z,19.29
2018-10-11T19:50:53.746Z,19.25
2018-10-11T19:53:23.684Z,19.26
2018-10-11T19:55:53.568Z,19.30
2018-10-11T19:58:23.600Z,19.38
2018-10-11T20:00:53.512Z,19.35
2018-10-11T20:03:23.362Z,19.33
2018-10-11T20:05:53.401Z,19.44
2018-10-11T20:08:23.532Z,19.38
2018-10-11T20:10:53.461Z,19.40
2018-10-11T20:13:23.425Z,19.35
2018-10-11T20:15:53.484Z,19.38
2018-10-11T20:18:23.378Z,19.31
2018-10-11T20:20:53.369Z,19.36
2018-10-11T20:23:23.315Z,19.31
2018-10-11T20:25:53.399Z,19.37
2018-10-11T20:28:23.397Z,19.30
2018-10-11T20:30:53.624Z,19.28
2018-10-11T20:33:23.544Z,19.29
2018-10-11T20:35:53.721Z,19.24
2018-10-11T20:38:23.598Z,19.32
2018-10-11T20:40:54.069Z,19.27
2018-10-11T20:43:24.038Z,19.31
2018-10-11T20:45:53.970Z,19.23
2018-10-11T20:48:23.765Z,19.26
2018-10-11T20:50:53.790Z,19.30
2018-10-11T20:53:23.835Z,19.21
2018-10-11T20:55:53.818Z,19.17
2018-10-11T20:58:24.056Z,19.15
2018-10-11T21:00:54.070Z,19.09
2018-10-11T21:03:24.084Z,19.11
2018-10-11T21:05:54.098Z,19.06
2018-10-11T21:08:23.955Z,19.08
2018-10-11T21:11:04.773Z,19.12
2018-10-11T21:13:34.665Z,19.11
2018-10-11T21:16:04.558Z,19.08
2018-10-11T21:18:34.514Z,19.06
2018-10-11T21:21:04.535Z,19.00
2018-10-11T21:23:34.375Z,18.99
2018-10-11T21:26:04.591Z,19.07
2018-10-11T21:28:34.681Z,18.99
2018-10-11T21:31:04.749Z,19.01
2018-10-11T21:33:35.117Z,19.02
2018-10-11T21:36:04.968Z,19.01
2018-10-11T21:38:34.892Z,18.97
2018-10-11T21:41:05.001Z,18.98
2018-10-11T21:43:34.818Z,18.90
2018-10-11T21:46:04.860Z,18.93
2018-10-11T21:48:34.702Z,18.88
2018-10-11T21:51:04.993Z,18.90
2018-10-11T21:53:34.999Z,18.90
2018-10-11T21:56:04.923Z,18.88
2018-10-11T21:58:34.821Z,18.88
2018-10-11T22:01:09.933Z,18.91
2018-10-11T22:03:40.094Z,18.91
2018-10-11T22:06:10.650Z,18.90
2018-10-11T22:08:41.336Z,18.85
2018-10-11T22:11:12.073Z,18.82
2018-10-11T22:13:42.377Z,18.82
2018-10-11T22:16:12.558Z,18.83
2018-10-11T22:18:42.977Z,18.75
2018-10-11T22:21:13.376Z,18.74
2018-10-11T22:23:44.003Z,18.77
2018-10-11T22:26:13.958Z,18.71
2018-10-11T22:28:43.864Z,18.68
2018-10-11T22:31:14.174Z,18.62
2018-10-11T22:33:44.100Z,18.60
2018-10-11T22:36:14.074Z,18.62
2018-10-11T22:38:44.027Z,18.58
2018-10-11T22:41:14.097Z,18.56
2018-10-11T22:43:44.160Z,18.56
2018-10-11T22:46:14.286Z,18.55
2018-10-11T22:48:44.323Z,18.54
2018-10-11T22:51:14.191Z,18.51
2018-10-11T22:53:44.061Z,18.50
2018-10-11T22:56:14.192Z,18.50
2018-10-11T22:58:44.239Z,18.47
2018-10-11T23:01:14.848Z,18.42
2018-10-11T23:03:44.809Z,18.44
2018-10-11T23:06:14.685Z,18.44
2018-10-11T23:08:44.532Z,18.45
2018-10-11T23:11:14.478Z,18.43
2018-10-11T23:13:44.458Z,18.45
2018-10-11T23:16:14.393Z,18.41
2018-10-11T23:18:44.237Z,18.42
2018-10-11T23:21:14.301Z,18.42
2018-10-11T23:23:45.048Z,18.41
2018-10-11T23:26:15.039Z,18.43
2018-10-11T23:28:44.986Z,18.38
2018-10-11T23:31:15.136Z,18.37
2018-10-11T23:33:45.545Z,18.32
2018-10-11T23:36:15.520Z,18.28
2018-10-11T23:38:45.492Z,18.30
2018-10-11T23:41:15.533Z,18.32
2018-10-11T23:43:45.481Z,18.27
2018-10-11T23:46:15.393Z,18.32
2018-10-11T23:48:45.263Z,18.29
2018-10-11T23:51:15.143Z,18.26
2018-10-11T23:53:56.159Z,18.26
2018-10-11T23:56:26.057Z,18.21
2018-10-11T23:58:56.303Z,18.19
